createdAt,value
2022-09-12T00:01:37.291Z,14.10
2022-09-12T00:04:06.336Z,14.10
2022-09-12T00:06:36.896Z,14.10
2022-09-12T00:09:08.329Z,14.10
2022-09-12T00:11:37.724Z,14.10
2022-09-12T00:14:08.785Z,14.10
2022-09-12T00:16:38.258Z,14.10
2022-09-12T00:19:08.265Z,14.00
2022-09-12T00:21:39.137Z,14.00
2022-09-12T00:24:08.181Z,14.00
2022-09-12T00:26:36.789Z,14.00
2022-09-12T00:29:05.461Z,14.00
2022-09-12T00:31:35.625Z,13.90
2022-09-12T00:34:04.141Z,13.90
2022-09-12T00:36:32.694Z,13.90
2022-09-12T00:39:01.425Z,13.80
2022-09-12T00:41:31.571Z,13.80
2022-09-12T00:44:02.311Z,13.80
2022-09-12T00:46:40.153Z,13.80
2022-09-12T00:49:15.283Z,13.80
2022-09-12T00:51:48.013Z,13.80
2022-09-12T00:54:22.193Z,13.70
2022-09-12T00:56:54.168Z,13.70
2022-09-12T00:59:26.432Z,13.70
2022-09-12T01:01:57.810Z,13.70
2022-09-12T01:04:28.974Z,13.70
2022-09-12T01:06:59.517Z,13.70
2022-09-12T01:09:28.103Z,13.70
2022-09-12T01:11:56.856Z,13.60
2022-09-12T01:14:25.825Z,13.60
2022-09-12T01:16:55.810Z,13.60
2022-09-12T01:20:04.414Z,13.60
2022-09-12T01:22:53.823Z,13.60
2022-09-12T01:25:29.760Z,13.50
2022-09-12T01:28:18.464Z,13.50
2022-09-12T01:30:52.302Z,13.50
2022-09-12T01:33:35.007Z,13.50
2022-09-12T01:36:24.637Z,13.50
2022-09-12T01:39:00.253Z,13.50
2022-09-12T01:41:32.655Z,13.50
2022-09-12T01:44:06.853Z,13.50
2022-09-12T01:46:45.702Z,13.50
2022-09-12T01:49:19.086Z,13.50
2022-09-12T01:51:58.312Z,13.40
2022-09-12T01:54:33.335Z,13.40
2022-09-12T01:57:07.179Z,13.40
2022-09-12T01:59:41.283Z,13.40
2022-09-12T02:02:16.200Z,13.40
2022-09-12T02:04:52.089Z,13.40
2022-09-12T02:07:24.313Z,13.40
2022-09-12T02:09:57.957Z,13.40
2022-09-12T02:12:30.778Z,13.40
2022-09-12T02:15:04.614Z,13.30
2022-09-12T02:17:39.241Z,13.30
2022-09-12T02:20:25.897Z,13.30
2022-09-12T02:23:08.395Z,13.30
2022-09-12T02:25:43.019Z,13.30
2022-09-12T02:28:15.163Z,13.30
2022-09-12T02:30:49.123Z,13.30
2022-09-12T02:33:26.644Z,13.30
2022-09-12T02:36:04.761Z,13.20
2022-09-12T02:38:39.982Z,13.20
2022-09-12T02:41:08.765Z,13.20
2022-09-12T02:43:38.748Z,13.20
2022-09-12T02:46:12.480Z,13.10
2022-09-12T02:48:44.583Z,13.10
2022-09-12T02:51:13.580Z,13.10
2022-09-12T02:53:42.983Z,13.10
2022-09-12T02:56:19.241Z,13.10
2022-09-12T02:58:48.724Z,13.10
2022-09-12T03:01:30.095Z,13.10
2022-09-12T03:04:20.341Z,13.10
2022-09-12T03:06:58.714Z,13.10
2022-09-12T03:09:36.775Z,13.00
2022-09-12T03:12:14.312Z,13.10
2022-09-12T03:15:01.560Z,13.00
2022-09-12T03:17:51.901Z,13.00
2022-09-12T03:20:35.320Z,13.00
2022-09-12T03:23:10.629Z,12.90
2022-09-12T03:25:44.638Z,12.90
2022-09-12T03:28:16.786Z,12.90
2022-09-12T03:30:47.258Z,12.90
2022-09-12T03:33:18.038Z,12.90
2022-09-12T03:35:48.942Z,12.90
2022-09-12T03:38:17.851Z,12.90
2022-09-12T03:40:51.380Z,12.90
2022-09-12T03:43:22.810Z,12.90
2022-09-12T03:45:53.294Z,12.90
2022-09-12T03:48:22.130Z,12.90
2022-09-12T03:50:52.147Z,12.90
2022-09-12T03:53:20.659Z,12.80
2022-09-12T03:55:49.195Z,12.80
2022-09-12T03:58:17.717Z,12.80
2022-09-12T04:00:46.728Z,12.80
2022-09-12T04:03:15.732Z,12.80
2022-09-12T04:05:44.268Z,12.80
2022-09-12T04:08:14.311Z,12.80
2022-09-12T04:10:42.853Z,12.80
2022-09-12T04:13:11.390Z,12.80
2022-09-12T04:15:39.886Z,12.70
2022-09-12T04:18:08.390Z,12.70
2022-09-12T04:20:37.652Z,12.70
2022-09-12T04:23:06.205Z,12.70
2022-09-12T04:25:36.149Z,12.70
2022-09-12T04:28:04.655Z,12.70
2022-09-12T04:30:34.861Z,12.60
2022-09-12T04:33:07.881Z,12.60
2022-09-12T04:35:37.196Z,12.60
2022-09-12T04:38:05.783Z,12.50
2022-09-12T04:40:34.398Z,12.50
2022-09-12T04:43:04.767Z,12.50
2022-09-12T04:45:33.942Z,12.50
2022-09-12T04:48:03.216Z,12.50
2022-09-12T04:50:31.930Z,12.50
2022-09-12T04:53:00.472Z,12.50
2022-09-12T04:55:28.969Z,12.50
2022-09-12T04:57:57.431Z,12.50
2022-09-12T05:00:27.354Z,12.50
2022-09-12T05:02:55.848Z,12.50
2022-09-12T05:05:24.546Z,12.50
2022-09-12T05:07:53.024Z,12.50
2022-09-12T05:10:23.785Z,12.50
2022-09-12T05:12:52.575Z,12.50
2022-09-12T05:15:21.160Z,12.40
2022-09-12T05:17:50.969Z,12.40
2022-09-12T05:20:19.670Z,12.40
2022-09-12T05:22:48.278Z,12.40
2022-09-12T05:25:17.138Z,12.40
2022-09-12T05:27:49.992Z,12.40
2022-09-12T05:30:19.125Z,12.40
2022-09-12T05:32:47.638Z,12.50
2022-09-12T05:35:18.539Z,12.50
2022-09-12T05:37:47.019Z,12.50
2022-09-12T05:40:17.782Z,12.50
2022-09-12T05:42:46.420Z,12.50
2022-09-12T05:45:14.987Z,12.50
2022-09-12T05:47:44.427Z,12.60
2022-09-12T05:50:13.067Z,12.60
2022-09-12T05:52:43.049Z,12.60
2022-09-12T05:55:11.649Z,12.60
2022-09-12T05:57:40.429Z,12.60
2022-09-12T06:00:10.504Z,12.70
2022-09-12T06:02:41.747Z,12.80
2022-09-12T06:05:10.685Z,12.80
2022-09-12T06:07:39.307Z,12.90
2022-09-12T06:10:10.107Z,12.90
2022-09-12T06:12:38.716Z,13.00
2022-09-12T06:15:08.097Z,13.10
2022-09-12T06:17:36.577Z,13.20
2022-09-12T06:20:05.480Z,13.20
2022-09-12T06:22:34.029Z,13.30
2022-09-12T06:25:03.068Z,13.40
2022-09-12T06:27:32.890Z,13.50
2022-09-12T06:30:01.369Z,13.50
2022-09-12T06:32:31.457Z,13.50
2022-09-12T06:34:59.936Z,13.50
2022-09-12T06:37:28.437Z,13.60
2022-09-12T06:39:57.176Z,13.70
2022-09-12T06:42:25.733Z,13.70
2022-09-12T06:45:00.135Z,13.80
2022-09-12T06:47:28.689Z,13.80
2022-09-12T06:49:57.209Z,13.90
2022-09-12T06:52:25.684Z,13.90
2022-09-12T06:54:54.205Z,14.00
2022-09-12T06:57:22.710Z,14.00
2022-09-12T06:59:51.730Z,14.10
2022-09-12T07:02:21.576Z,14.20
2022-09-12T07:04:51.741Z,14.30
2022-09-12T07:07:20.283Z,14.40
2022-09-12T07:09:49.407Z,14.40
2022-09-12T07:12:17.924Z,14.50
2022-09-12T07:14:46.562Z,14.60
2022-09-12T07:17:15.104Z,14.70
2022-09-12T07:19:44.917Z,14.80
2022-09-12T07:22:13.891Z,14.90
2022-09-12T07:24:42.420Z,15.00
2022-09-12T07:27:11.009Z,15.10
2022-09-12T07:29:39.573Z,15.30
2022-09-12T07:32:08.885Z,15.40
2022-09-12T07:34:37.609Z,15.50
2022-09-12T07:37:07.526Z,15.60
2022-09-12T07:39:36.006Z,15.70
2022-09-12T07:42:04.716Z,15.80
2022-09-12T07:44:33.301Z,15.80
2022-09-12T07:47:01.976Z,16.00
2022-09-12T07:49:30.508Z,16.00
2022-09-12T07:51:59.129Z,16.10
2022-09-12T07:54:28.985Z,16.20
2022-09-12T07:56:57.678Z,16.20
2022-09-12T07:59:48.874Z,16.30
2022-09-12T08:02:17.348Z,16.30
2022-09-12T08:04:48.085Z,16.40
2022-09-12T08:07:18.318Z,16.40
2022-09-12T08:09:48.423Z,16.50
2022-09-12T08:12:17.728Z,16.60
2022-09-12T08:14:46.225Z,16.70
2022-09-12T08:17:15.316Z,16.80
2022-09-12T08:19:44.848Z,17.00
2022-09-12T08:22:13.577Z,17.10
2022-09-12T08:24:42.425Z,17.20
2022-09-12T08:27:12.483Z,17.30
2022-09-12T08:29:40.996Z,17.40
2022-09-12T08:32:09.902Z,17.40
2022-09-12T08:34:38.505Z,17.50
2022-09-12T08:37:07.098Z,17.50
2022-09-12T08:39:35.673Z,17.70
2022-09-12T08:42:05.775Z,17.80
2022-09-12T08:45:06.251Z,17.90
2022-09-12T08:47:39.818Z,18.00
2022-09-12T08:50:17.630Z,18.10
2022-09-12T08:52:55.931Z,18.20
2022-09-12T08:55:33.012Z,18.30
2022-09-12T08:58:02.934Z,18.40
2022-09-12T09:00:40.709Z,18.50
2022-09-12T09:03:31.002Z,18.70
2022-09-12T09:06:08.468Z,18.80
2022-09-12T09:08:47.782Z,18.90
2022-09-12T09:11:27.961Z,18.90
2022-09-12T09:14:27.241Z,19.00
2022-09-12T09:16:58.831Z,19.00
2022-09-12T09:19:30.263Z,19.10
2022-09-12T09:22:01.980Z,19.10
2022-09-12T09:24:37.956Z,19.10
2022-09-12T09:27:36.807Z,19.20
2022-09-12T09:30:01.834Z,19.30
2022-09-12T09:32:37.176Z,19.30
2022-09-12T09:35:16.682Z,19.40
2022-09-12T09:37:58.037Z,19.50
2022-09-12T09:40:36.563Z,19.50
2022-09-12T09:43:16.003Z,19.70
2022-09-12T09:45:47.369Z,19.80
2022-09-12T09:48:24.909Z,19.90
2022-09-12T09:50:53.984Z,20.00
2022-09-12T09:53:34.904Z,20.10
2022-09-12T09:56:10.104Z,20.30
2022-09-12T09:58:38.737Z,20.30
2022-09-12T10:01:15.632Z,20.50
2022-09-12T10:03:52.476Z,20.60
2022-09-12T10:06:30.914Z,20.60
2022-09-12T10:09:19.685Z,20.70
2022-09-12T10:11:49.257Z,20.80
2022-09-12T10:14:37.627Z,20.90
2022-09-12T10:17:25.819Z,21.00
2022-09-12T10:20:17.463Z,21.10
2022-09-12T10:22:49.481Z,21.10
2022-09-12T10:25:20.271Z,21.20
2022-09-12T10:27:54.462Z,21.30
2022-09-12T10:30:25.001Z,21.40
2022-09-12T10:32:54.043Z,21.40
2022-09-12T10:35:26.685Z,21.50
2022-09-12T10:37:58.213Z,21.50
2022-09-12T10:40:29.021Z,21.60
2022-09-12T10:42:59.245Z,21.60
2022-09-12T10:45:30.289Z,21.80
2022-09-12T10:48:04.101Z,21.80
2022-09-12T10:50:41.792Z,21.80
2022-09-12T10:53:20.542Z,21.80
2022-09-12T10:56:05.129Z,21.80
2022-09-12T10:58:53.628Z,21.90
2022-09-12T11:01:38.926Z,21.90
2022-09-12T11:04:25.400Z,22.00
2022-09-12T11:07:05.950Z,22.00
2022-09-12T11:09:42.462Z,22.10
2022-09-12T11:12:16.985Z,22.10
2022-09-12T11:14:57.554Z,22.10
2022-09-12T11:17:34.588Z,22.20
2022-09-12T11:20:40.049Z,22.20
2022-09-12T11:23:39.185Z,22.30
2022-09-12T11:26:20.172Z,22.40
2022-09-12T11:28:55.673Z,22.40
2022-09-12T11:31:42.734Z,22.50
2022-09-12T11:34:15.642Z,22.60
2022-09-12T11:37:16.178Z,22.60
2022-09-12T11:39:54.767Z,22.70
2022-09-12T11:42:30.741Z,22.80
2022-09-12T11:45:06.108Z,22.80
2022-09-12T11:47:36.656Z,22.90
2022-09-12T11:50:23.372Z,22.90
2022-09-12T11:52:53.690Z,23.00
2022-09-12T11:55:27.142Z,23.00
2022-09-12T11:57:58.459Z,23.10
2022-09-12T12:00:31.903Z,23.20
2022-09-12T12:03:07.433Z,23.20
2022-09-12T12:05:43.206Z,23.20
2022-09-12T12:08:12.154Z,23.30
2022-09-12T12:10:43.742Z,23.30
2022-09-12T12:13:27.670Z,23.40
2022-09-12T12:16:00.838Z,23.50
2022-09-12T12:18:31.253Z,23.60
2022-09-12T12:21:22.781Z,23.60
2022-09-12T12:24:18.711Z,23.70
2022-09-12T12:26:59.320Z,23.70
2022-09-12T12:29:54.731Z,23.70
2022-09-12T12:32:26.087Z,23.80
2022-09-12T12:35:40.433Z,23.90
2022-09-12T12:38:28.956Z,23.90
2022-09-12T12:41:54.423Z,23.90
2022-09-12T12:44:52.310Z,24.00
2022-09-12T12:47:25.290Z,24.00
2022-09-12T12:49:57.169Z,24.10
2022-09-12T12:52:29.402Z,24.10
2022-09-12T12:54:59.788Z,24.10
2022-09-12T12:57:46.652Z,24.20
2022-09-12T13:00:35.354Z,24.20
2022-09-12T13:03:11.686Z,24.30
2022-09-12T13:05:42.525Z,24.30
2022-09-12T13:08:24.951Z,24.40
2022-09-12T13:10:56.864Z,24.40
2022-09-12T13:13:29.234Z,24.40
2022-09-12T13:15:59.749Z,24.40
2022-09-12T13:18:30.945Z,24.40
2022-09-12T13:21:10.286Z,24.40
2022-09-12T13:23:38.972Z,24.40
2022-09-12T13:26:13.408Z,24.50
2022-09-12T13:28:42.004Z,24.60
2022-09-12T13:31:20.003Z,24.60
2022-09-12T13:33:50.843Z,24.60
2022-09-12T13:36:34.977Z,24.60
2022-09-12T13:39:15.353Z,24.60
2022-09-12T13:42:10.069Z,24.60
2022-09-12T13:44:44.469Z,24.60
2022-09-12T13:47:21.886Z,24.60
2022-09-12T13:49:51.433Z,24.50
2022-09-12T13:52:22.992Z,24.60
2022-09-12T13:54:54.233Z,24.60
2022-09-12T13:57:34.455Z,24.60
2022-09-12T14:00:08.900Z,24.60
2022-09-12T14:02:41.574Z,24.70
2022-09-12T14:05:14.539Z,24.70
2022-09-12T14:07:55.125Z,24.70
2022-09-12T14:10:29.136Z,24.70
2022-09-12T14:12:58.740Z,24.70
2022-09-12T14:15:30.089Z,24.70
2022-09-12T14:18:01.786Z,24.80
2022-09-12T14:20:32.932Z,24.80
2022-09-12T14:23:04.777Z,24.80
2022-09-12T14:25:39.007Z,24.70
2022-09-12T14:28:10.424Z,24.80
2022-09-12T14:30:39.166Z,24.70
2022-09-12T14:33:20.033Z,24.70
2022-09-12T14:35:50.452Z,24.70
2022-09-12T14:38:24.805Z,24.70
2022-09-12T14:41:00.466Z,24.80
2022-09-12T14:43:31.337Z,24.80
2022-09-12T14:46:03.564Z,24.80
2022-09-12T14:48:37.378Z,24.70
2022-09-12T14:51:07.123Z,24.70
2022-09-12T14:53:37.606Z,24.70
2022-09-12T14:56:11.618Z,24.60
2022-09-12T14:58:41.513Z,24.60
2022-09-12T15:01:28.570Z,24.60
2022-09-12T15:03:58.489Z,24.60
2022-09-12T15:06:30.143Z,24.60
2022-09-12T15:09:00.615Z,24.50
2022-09-12T15:11:29.451Z,24.50
2022-09-12T15:13:58.016Z,24.50
2022-09-12T15:16:26.673Z,24.50
2022-09-12T15:18:55.159Z,24.50
2022-09-12T15:21:25.026Z,24.40
2022-09-12T15:23:53.930Z,24.40
2022-09-12T15:26:23.976Z,24.30
2022-09-12T15:28:52.485Z,24.30
2022-09-12T15:31:25.731Z,24.30
2022-09-12T15:33:55.485Z,24.20
2022-09-12T15:36:26.292Z,24.20
2022-09-12T15:38:55.552Z,24.20
2022-09-12T15:41:27.710Z,24.20
2022-09-12T15:43:56.743Z,24.20
2022-09-12T15:46:25.344Z,24.10
2022-09-12T15:48:53.879Z,24.10
2022-09-12T15:51:23.080Z,24.10
2022-09-12T15:53:53.225Z,24.10
2022-09-12T15:56:23.103Z,24.10
2022-09-12T15:59:00.117Z,24.10
2022-09-12T16:01:29.998Z,24.00
2022-09-12T16:03:58.946Z,24.00
2022-09-12T16:06:32.478Z,24.00
2022-09-12T16:09:05.131Z,23.90
2022-09-12T16:11:33.943Z,23.90
2022-09-12T16:14:03.683Z,23.90
2022-09-12T16:16:32.482Z,23.80
2022-09-12T16:19:00.975Z,23.80
2022-09-12T16:21:29.531Z,23.80
2022-09-12T16:23:58.054Z,23.80
2022-09-12T16:26:28.000Z,23.70
2022-09-12T16:28:57.025Z,23.70
2022-09-12T16:31:26.689Z,23.60
2022-09-12T16:33:55.256Z,23.60
2022-09-12T16:36:24.289Z,23.50
2022-09-12T16:38:54.375Z,23.50
2022-09-12T16:41:26.263Z,23.40
2022-09-12T16:43:56.300Z,23.40
2022-09-12T16:46:28.607Z,23.40
2022-09-12T16:48:58.863Z,23.40
2022-09-12T16:51:29.277Z,23.30
2022-09-12T16:53:58.197Z,23.30
2022-09-12T16:56:26.688Z,23.30
2022-09-12T16:58:56.697Z,23.30
2022-09-12T17:01:26.866Z,23.30
2022-09-12T17:03:56.413Z,23.20
2022-09-12T17:06:25.901Z,23.20
2022-09-12T17:08:55.993Z,23.20
2022-09-12T17:11:26.673Z,23.20
2022-09-12T17:14:04.802Z,23.10
2022-09-12T17:16:34.734Z,23.10
2022-09-12T17:19:03.312Z,23.00
2022-09-12T17:21:31.841Z,23.00
2022-09-12T17:24:00.617Z,22.90
2022-09-12T17:26:29.074Z,22.90
2022-09-12T17:28:58.976Z,22.80
2022-09-12T17:31:27.726Z,22.80
2022-09-12T17:33:58.041Z,22.70
2022-09-12T17:36:27.221Z,22.70
2022-09-12T17:38:56.085Z,22.60
2022-09-12T17:41:25.893Z,22.50
2022-09-12T17:43:57.249Z,22.40
2022-09-12T17:46:30.925Z,22.40
2022-09-12T17:49:01.954Z,22.30
2022-09-12T17:51:31.653Z,22.30
2022-09-12T17:54:02.601Z,22.20
2022-09-12T17:56:33.252Z,22.10
2022-09-12T17:59:03.063Z,22.00
2022-09-12T18:01:50.651Z,21.90
2022-09-12T18:04:19.986Z,21.80
2022-09-12T18:06:49.165Z,21.70
2022-09-12T18:09:21.472Z,21.60
2022-09-12T18:11:51.034Z,21.60
2022-09-12T18:14:19.827Z,21.50
2022-09-12T18:16:50.256Z,21.40
2022-09-12T18:19:19.009Z,21.30
2022-09-12T18:21:47.553Z,21.30
2022-09-12T18:24:16.454Z,21.20
2022-09-12T18:26:44.945Z,21.20
2022-09-12T18:29:16.733Z,21.10
2022-09-12T18:31:46.640Z,21.10
2022-09-12T18:34:17.357Z,21.00
2022-09-12T18:36:49.805Z,20.90
2022-09-12T18:39:18.964Z,20.90
2022-09-12T18:41:47.507Z,20.80
2022-09-12T18:44:15.997Z,20.70
2022-09-12T18:46:44.549Z,20.70
2022-09-12T18:49:13.216Z,20.60
2022-09-12T18:51:43.753Z,20.60
2022-09-12T18:54:14.380Z,20.50
2022-09-12T18:56:43.943Z,20.40
2022-09-12T18:59:14.870Z,20.40
2022-09-12T19:01:43.979Z,20.40
2022-09-12T19:04:16.005Z,20.40
2022-09-12T19:06:48.209Z,20.40
2022-09-12T19:09:18.822Z,20.40
2022-09-12T19:11:49.922Z,20.30
2022-09-12T19:14:22.466Z,20.20
2022-09-12T19:16:52.017Z,20.20
2022-09-12T19:19:21.352Z,20.20
2022-09-12T19:21:51.294Z,20.10
2022-09-12T19:24:21.788Z,20.00
2022-09-12T19:26:52.002Z,20.00
2022-09-12T19:29:21.059Z,20.00
2022-09-12T19:31:50.070Z,19.90
2022-09-12T19:34:19.169Z,19.90
2022-09-12T19:36:47.942Z,19.80
2022-09-12T19:39:19.805Z,19.80
2022-09-12T19:41:49.170Z,19.70
2022-09-12T19:44:19.153Z,19.70
2022-09-12T19:46:47.775Z,19.60
2022-09-12T19:49:16.573Z,19.60
2022-09-12T19:51:45.312Z,19.60
2022-09-12T19:54:13.784Z,19.50
2022-09-12T19:56:43.664Z,19.50
2022-09-12T19:59:12.408Z,19.50
2022-09-12T20:01:40.930Z,19.40
2022-09-12T20:04:09.502Z,19.40
2022-09-12T20:06:38.613Z,19.40
2022-09-12T20:09:07.220Z,19.40
2022-09-12T20:11:35.766Z,19.40
2022-09-12T20:14:05.774Z,19.30
2022-09-12T20:16:34.549Z,19.20
2022-09-12T20:19:06.827Z,19.10
2022-09-12T20:21:36.638Z,19.10
2022-09-12T20:24:07.135Z,19.10
2022-09-12T20:26:35.937Z,19.00
2022-09-12T20:29:06.573Z,19.00
2022-09-12T20:31:35.732Z,18.90
2022-09-12T20:34:04.513Z,18.90
2022-09-12T20:36:33.486Z,18.90
2022-09-12T20:39:02.681Z,18.90
2022-09-12T20:41:36.226Z,18.90
2022-09-12T20:44:06.372Z,18.80
2022-09-12T20:46:35.316Z,18.80
2022-09-12T20:49:04.208Z,18.80
2022-09-12T20:51:32.870Z,18.80
2022-09-12T20:54:03.969Z,18.80
2022-09-12T20:56:34.289Z,18.70
2022-09-12T20:59:03.092Z,18.70
2022-09-12T21:01:33.895Z,18.70
2022-09-12T21:04:03.115Z,18.70
2022-09-12T21:06:32.454Z,18.60
2022-09-12T21:09:01.100Z,18.60
2022-09-12T21:11:30.311Z,18.60
2022-09-12T21:13:58.933Z,18.60
2022-09-12T21:16:27.695Z,18.60
2022-09-12T21:18:59.396Z,18.60
2022-09-12T21:21:28.206Z,18.50
2022-09-12T21:23:59.384Z,18.60
2022-09-12T21:26:28.297Z,18.40
2022-09-12T21:28:57.427Z,18.40
2022-09-12T21:31:27.007Z,18.30
2022-09-12T21:33:57.191Z,18.20
2022-09-12T21:36:26.011Z,18.20
2022-09-12T21:38:54.600Z,18.10
2022-09-12T21:41:23.136Z,18.10
2022-09-12T21:43:51.740Z,18.10
2022-09-12T21:46:20.269Z,18.00
2022-09-12T21:48:48.920Z,18.00
2022-09-12T21:51:18.774Z,17.90
2022-09-12T21:53:47.764Z,18.00
2022-09-12T21:56:16.410Z,18.00
2022-09-12T21:58:45.046Z,18.00
2022-09-12T22:01:13.836Z,18.00
2022-09-12T22:03:44.657Z,18.00
2022-09-12T22:06:14.139Z,18.00
2022-09-12T22:08:44.306Z,17.90
2022-09-12T22:11:12.836Z,17.90
2022-09-12T22:13:43.784Z,17.90
2022-09-12T22:16:13.114Z,17.90
2022-09-12T22:18:41.742Z,17.90
2022-09-12T22:21:12.920Z,17.80
2022-09-12T22:24:00.425Z,17.80
2022-09-12T22:26:29.943Z,17.70
2022-09-12T22:28:58.498Z,17.70
2022-09-12T22:31:28.069Z,17.70
2022-09-12T22:33:58.286Z,17.70
2022-09-12T22:36:31.022Z,17.60
2022-09-12T22:39:01.654Z,17.60
2022-09-12T22:41:30.261Z,17.50
2022-09-12T22:43:59.188Z,17.50
2022-09-12T22:46:27.905Z,17.40
2022-09-12T22:48:56.669Z,17.40
2022-09-12T22:51:25.239Z,17.40
2022-09-12T22:53:54.172Z,17.40
2022-09-12T22:56:24.810Z,17.30
2022-09-12T22:58:53.727Z,17.30
2022-09-12T23:01:22.863Z,17.30
2022-09-12T23:03:51.497Z,17.20
2022-09-12T23:06:20.210Z,17.20
2022-09-12T23:08:48.968Z,17.20
2022-09-12T23:11:19.605Z,17.10
2022-09-12T23:13:51.312Z,17.10
2022-09-12T23:16:21.676Z,17.10
2022-09-12T23:18:50.620Z,17.10
2022-09-12T23:21:21.314Z,17.20
2022-09-12T23:23:50.289Z,17.10
2022-09-12T23:26:21.454Z,17.00
2022-09-12T23:28:53.362Z,17.00
2022-09-12T23:31:23.038Z,16.90
2022-09-12T23:33:54.009Z,16.90
2022-09-12T23:36:23.382Z,16.90
2022-09-12T23:38:52.324Z,16.80
2022-09-12T23:41:22.122Z,16.80
2022-09-12T23:43:52.201Z,16.80
2022-09-12T23:46:21.503Z,16.80
2022-09-12T23:48:53.252Z,16.70
2022-09-12T23:51:22.680Z,16.70
2022-09-12T23:53:51.614Z,16.70
2022-09-12T23:56:22.002Z,16.60
2022-09-12T23:58:52.142Z,16.60
